KEGE

Eagle County Regional Airport

Eagle, Colorado, USA
METAR KEGE 241456Z 23004KT 10SM CLR 18/03 A3010 RMK AO2 SLP122 T01780033 51010
Observed Flight Rules
Jun-24 @ 14:56 UTC (11 minutes ago) Visual Flight Rules
Wind Visibility Clouds
230° at 4 knots 10 miles
  • Clear skies
Temperatures Readings
Current 18°C / 64°F
Dewpoint 3°C / 37°F
Humidity 37%
Altimeter 30.1" Hg
Pressure 1012.2 hPa
Elevation 1993
METAR KEGE 241456Z 23004KT 10SM CLR 18/03 A3010 RMK AO2 SLP122 T01780033 51010
Observed Flight Rules
Jun-24 @ 14:56 UTC
(11 minutes ago)
VFR
Wind Visibility
230° at 4 knots 10 miles
Clouds
  • Clear skies
Temperature Dewpoint
18°C / 64°F 3°C / 37°F
Humidity Altimeter Pressure
37% 30.1" Hg 1012.2 hPa